Time;durP1;ratioP1;P1;durP2;ratioP2;P2;SDS_P1;SDS_P2;PMS_P1;PMS_P2;Temp;Humidity;BMP_temperature;BMP_pressure;BME280_temperature;BME280_humidity;BME280_pressure;Samples;Min_cycle;Max_cycle;Signal;HPM_P1;HPM_P2
2021/07/16 00:00:29;;;;;;;20.30;8.02;;;22.10;91.70;;;;;;5012236;28;20551;-66
2021/07/16 00:02:56;;;;;;;20.10;8.27;;;22.10;91.70;;;;;;5011576;28;20431;-67
2021/07/16 00:05:22;;;;;;;22.25;8.05;;;22.00;91.80;;;;;;4994044;28;20823;-66
2021/07/16 00:07:48;;;;;;;17.92;7.53;;;22.00;91.80;;;;;;4991802;28;20416;-67
2021/07/16 00:10:17;;;;;;;19.13;7.50;;;22.00;91.80;;;;;;4992469;28;20031;-67
2021/07/16 00:12:43;;;;;;;16.52;7.75;;;22.00;91.80;;;;;;4992122;28;20034;-67
2021/07/16 00:15:11;;;;;;;22.63;7.50;;;22.00;91.80;;;;;;4992554;28;20030;-67
2021/07/16 00:17:38;;;;;;;21.88;6.43;;;22.00;91.70;;;;;;4991931;28;20500;-67
2021/07/16 00:20:04;;;;;;;22.35;7.38;;;22.00;91.70;;;;;;4992242;28;20034;-67
2021/07/16 00:22:30;;;;;;;18.20;6.80;;;21.90;91.70;;;;;;5010679;28;20026;-67
2021/07/16 00:24:56;;;;;;;18.77;7.03;;;21.80;91.60;;;;;;5011699;28;20384;-67
2021/07/16 00:27:22;;;;;;;17.25;6.40;;;21.80;91.70;;;;;;5011192;28;20526;-67
2021/07/16 00:29:48;;;;;;;11.10;5.35;;;21.70;91.70;;;;;;5011430;28;20089;-66
2021/07/16 00:32:13;;;;;;;14.05;6.18;;;21.80;91.70;;;;;;5010972;28;20034;-67
2021/07/16 00:34:39;;;;;;;12.00;5.55;;;21.80;91.60;;;;;;5011424;28;20062;-67
2021/07/16 00:37:05;;;;;;;15.23;5.43;;;21.80;91.60;;;;;;5011148;28;20030;-67
2021/07/16 00:39:32;;;;;;;17.98;5.82;;;21.80;91.40;;;;;;5011545;28;20538;-67
2021/07/16 00:41:58;;;;;;;13.30;4.90;;;21.70;91.50;;;;;;5010230;28;20030;-67
2021/07/16 00:44:25;;;;;;;19.52;5.43;;;21.70;91.50;;;;;;5010672;28;20026;-67
2021/07/16 00:46:51;;;;;;;17.75;5.20;;;21.70;91.50;;;;;;5008339;28;20029;-67
2021/07/16 00:49:17;;;;;;;17.92;4.90;;;21.60;91.50;;;;;;5001915;28;20030;-67
2021/07/16 00:51:43;;;;;;;17.95;5.30;;;21.60;91.40;;;;;;5000035;28;20043;-67
2021/07/16 00:54:09;;;;;;;16.55;4.75;;;21.50;91.50;;;;;;4991751;28;20026;-67
2021/07/16 00:56:35;;;;;;;17.17;5.55;;;21.50;91.60;;;;;;5007512;28;20037;-67
2021/07/16 00:59:02;;;;;;;12.38;5.15;;;21.40;91.60;;;;;;5007741;28;20495;-67
2021/07/16 01:01:28;;;;;;;14.05;4.47;;;21.40;91.70;;;;;;5010642;28;20030;-67
2021/07/16 01:03:55;;;;;;;16.15;4.80;;;21.40;91.80;;;;;;5005162;28;20041;-67
2021/07/16 01:06:21;;;;;;;15.48;5.25;;;21.40;91.70;;;;;;4991359;28;20034;-67
2021/07/16 01:08:46;;;;;;;11.50;4.30;;;21.40;91.60;;;;;;4990823;28;20101;-67
2021/07/16 01:11:12;;;;;;;17.98;5.55;;;21.30;91.60;;;;;;4991477;28;20096;-67
2021/07/16 01:13:38;;;;;;;21.13;5.47;;;21.40;91.60;;;;;;4990991;28;20034;-67
2021/07/16 01:16:04;;;;;;;17.63;5.13;;;21.30;91.60;;;;;;4991236;28;20034;-67
2021/07/16 01:18:30;;;;;;;15.95;5.45;;;21.20;91.60;;;;;;4990534;28;20500;-67
2021/07/16 01:20:57;;;;;;;12.95;5.25;;;21.10;91.70;;;;;;4997508;28;20034;-67
2021/07/16 01:23:24;;;;;;;22.67;5.18;;;21.10;91.90;;;;;;5010450;28;20037;-68
2021/07/16 01:25:51;;;;;;;16.10;4.80;;;21.10;91.80;;;;;;4993580;28;20032;-67
2021/07/16 01:28:18;;;;;;;14.93;5.20;;;21.00;91.90;;;;;;5010312;28;20029;-67
2021/07/16 01:30:45;;;;;;;13.65;4.75;;;20.90;91.90;;;;;;5010771;28;20034;-67
2021/07/16 01:33:11;;;;;;;19.15;5.15;;;20.90;91.90;;;;;;5010645;28;20042;-67
2021/07/16 01:35:36;;;;;;;18.20;4.90;;;20.80;92.10;;;;;;5011152;28;20092;-67
2021/07/16 01:38:03;;;;;;;18.92;4.80;;;20.80;92.00;;;;;;5010246;28;20491;-67
2021/07/16 01:40:35;;;;;;;13.35;5.00;;;20.70;92.10;;;;;;5010137;28;20062;-67
2021/07/16 01:43:03;;;;;;;18.80;5.03;;;20.70;92.10;;;;;;5012683;28;20098;-67
2021/07/16 01:45:33;;;;;;;13.52;4.05;;;20.70;92.10;;;;;;5010744;28;20087;-68
2021/07/16 01:48:08;;;;;;;14.73;4.15;;;20.70;92.10;;;;;;5000607;28;20034;-67
2021/07/16 01:50:34;;;;;;;18.48;5.15;;;20.70;92.00;;;;;;5008481;28;20034;-67
2021/07/16 01:53:01;;;;;;;12.45;4.57;;;20.70;91.90;;;;;;4990731;28;20041;-67
2021/07/16 01:55:29;;;;;;;14.95;4.85;;;20.70;91.90;;;;;;4998712;28;20038;-68
2021/07/16 01:57:57;;;;;;;21.65;5.35;;;20.70;91.90;;;;;;5011776;28;20045;-67
2021/07/16 02:00:29;;;;;;;13.07;4.35;;;20.60;92.10;;;;;;5014753;28;20030;-67
2021/07/16 02:03:00;;;;;;;17.77;4.90;;;20.60;92.00;;;;;;5013982;28;20034;-67
2021/07/16 02:05:28;;;;;;;16.40;4.93;;;20.50;92.20;;;;;;4995795;28;20023;-66
2021/07/16 02:08:00;;;;;;;14.70;5.20;;;20.50;92.20;;;;;;4994187;28;20085;-68
2021/07/16 02:10:26;;;;;;;13.65;5.50;;;20.50;92.30;;;;;;4994752;28;20038;-67
2021/07/16 02:12:54;;;;;;;15.60;5.50;;;20.50;92.20;;;;;;4994262;28;20518;-67
2021/07/16 02:15:29;;;;;;;12.82;4.65;;;20.50;92.20;;;;;;4994640;28;20526;-67
2021/07/16 02:17:55;;;;;;;15.02;5.00;;;20.50;92.30;;;;;;4994424;28;20454;-67
2021/07/16 02:20:34;;;;;;;14.07;4.55;;;20.40;92.20;;;;;;4995819;28;20077;-67
2021/07/16 02:23:05;;;;;;;16.10;4.85;;;20.40;92.20;;;;;;5013811;28;20041;-67
2021/07/16 02:25:31;;;;;;;15.75;5.47;;;20.50;92.20;;;;;;5014027;28;20352;-67
2021/07/16 02:28:04;;;;;;;15.38;5.57;;;20.40;92.20;;;;;;5013278;28;20084;-67
2021/07/16 02:30:30;;;;;;;13.32;4.82;;;20.40;92.30;;;;;;5013855;28;20034;-67
2021/07/16 02:32:58;;;;;;;15.07;5.60;;;20.30;92.30;;;;;;5013476;28;20120;-67
2021/07/16 02:35:24;;;;;;;16.98;5.97;;;20.30;92.30;;;;;;5013724;28;20086;-67
2021/07/16 02:37:50;;;;;;;17.67;5.65;;;20.30;92.40;;;;;;4995674;28;20167;-67
2021/07/16 02:40:17;;;;;;;15.50;5.90;;;20.30;92.30;;;;;;5013685;28;20388;-67
2021/07/16 02:42:43;;;;;;;15.23;5.55;;;20.30;92.30;;;;;;5013363;28;20033;-67
2021/07/16 02:45:13;;;;;;;27.65;6.82;;;20.20;92.30;;;;;;5013632;28;20129;-67
2021/07/16 02:47:39;;;;;;;21.05;6.32;;;20.20;92.40;;;;;;5006301;28;20036;-67
2021/07/16 02:50:10;;;;;;;26.08;6.53;;;20.20;92.50;;;;;;5009189;28;20026;-67
2021/07/16 02:52:36;;;;;;;19.27;6.05;;;20.10;92.40;;;;;;4995380;28;20046;-67
2021/07/16 02:55:03;;;;;;;12.20;5.38;;;20.10;92.50;;;;;;4997438;28;20022;-67
2021/07/16 02:57:29;;;;;;;22.50;5.95;;;20.20;92.50;;;;;;5011150;28;20032;-66
2021/07/16 02:59:55;;;;;;;15.48;5.50;;;20.20;92.40;;;;;;5013695;28;20026;-67
2021/07/16 03:02:21;;;;;;;19.38;5.80;;;20.20;92.40;;;;;;5013285;28;20088;-67
2021/07/16 03:04:49;;;;;;;17.60;6.05;;;20.20;92.40;;;;;;5000163;28;20018;-67
2021/07/16 03:07:16;;;;;;;17.10;6.50;;;20.20;92.30;;;;;;4992435;28;20045;-67
2021/07/16 03:09:41;;;;;;;18.42;6.72;;;20.20;92.40;;;;;;4993838;28;20030;-68
2021/07/16 03:12:07;;;;;;;12.95;5.60;;;20.20;92.40;;;;;;4993184;28;20048;-67
2021/07/16 03:14:33;;;;;;;19.15;6.15;;;20.20;92.30;;;;;;4993674;28;20106;-67
2021/07/16 03:16:59;;;;;;;18.77;5.80;;;20.10;92.40;;;;;;4993275;28;20121;-67
2021/07/16 03:19:24;;;;;;;15.32;5.57;;;20.10;92.40;;;;;;4993492;28;20052;-67
2021/07/16 03:21:50;;;;;;;18.20;6.22;;;20.10;92.40;;;;;;5006671;28;20033;-67
2021/07/16 03:24:18;;;;;;;15.27;6.20;;;20.10;92.50;;;;;;5012963;28;20088;-67
2021/07/16 03:26:44;;;;;;;23.25;6.35;;;20.10;92.50;;;;;;5013776;28;20058;-67
2021/07/16 03:29:10;;;;;;;16.83;6.10;;;20.10;92.50;;;;;;5012453;28;20085;-67
2021/07/16 03:31:36;;;;;;;16.88;5.82;;;20.00;92.50;;;;;;5012407;28;20048;-67
2021/07/16 03:34:02;;;;;;;19.08;6.00;;;20.00;92.60;;;;;;5013199;28;20029;-68
2021/07/16 03:36:27;;;;;;;17.65;6.22;;;20.00;92.50;;;;;;5013071;28;20357;-67
2021/07/16 03:38:53;;;;;;;17.05;5.97;;;20.00;92.50;;;;;;5012376;28;20030;-67
2021/07/16 03:41:19;;;;;;;20.90;5.82;;;20.10;92.50;;;;;;5011631;28;20440;-67
2021/07/16 03:43:44;;;;;;;18.48;6.18;;;20.00;92.50;;;;;;5012739;28;20030;-67
2021/07/16 03:46:10;;;;;;;15.65;5.82;;;20.00;92.40;;;;;;5012327;28;20030;-67
2021/07/16 03:48:36;;;;;;;18.25;5.53;;;20.10;92.40;;;;;;5000042;28;20096;-67
2021/07/16 03:51:01;;;;;;;13.95;5.43;;;20.10;92.40;;;;;;5006746;28;20084;-67
2021/07/16 03:53:27;;;;;;;19.48;5.85;;;20.10;92.40;;;;;;4990203;28;20034;-67
2021/07/16 03:55:53;;;;;;;19.48;5.85;;;20.00;92.50;;;;;;5003136;28;20030;-67
2021/07/16 03:58:19;;;;;;;14.18;5.53;;;20.00;92.50;;;;;;5009854;28;20576;-67
2021/07/16 04:00:44;;;;;;;21.67;6.05;;;19.90;92.60;;;;;;5012100;28;20061;-67
2021/07/16 04:03:10;;;;;;;19.17;6.32;;;19.80;92.90;;;;;;5011700;28;20040;-67
2021/07/16 04:05:37;;;;;;;20.60;6.25;;;19.70;92.90;;;;;;4992394;28;20034;-67
2021/07/16 04:08:05;;;;;;;19.33;6.22;;;19.80;92.80;;;;;;4991980;28;20034;-67
2021/07/16 04:10:32;;;;;;;20.27;5.93;;;19.80;92.90;;;;;;4992518;28;20037;-67
2021/07/16 04:13:03;;;;;;;14.98;5.45;;;19.80;92.80;;;;;;4992085;28;20038;-67
2021/07/16 04:15:29;;;;;;;22.70;6.40;;;19.80;92.80;;;;;;4992300;28;20030;-67
2021/07/16 04:17:57;;;;;;;14.52;5.75;;;19.80;92.70;;;;;;4971640;28;20097;-67
2021/07/16 04:20:23;;;;;;;19.60;6.53;;;19.80;92.80;;;;;;4960461;28;20041;-67
2021/07/16 04:22:49;;;;;;;20.30;5.93;;;19.80;92.80;;;;;;5011550;28;20029;-67
2021/07/16 04:25:19;;;;;;;16.13;5.75;;;19.80;93.10;;;;;;5012113;28;20026;-67
2021/07/16 04:27:49;;;;;;;19.02;6.75;;;19.80;92.80;;;;;;5011609;28;20036;-67
2021/07/16 04:30:17;;;;;;;24.30;7.10;;;19.80;92.70;;;;;;5012499;28;20086;-67
2021/07/16 04:32:43;;;;;;;21.00;6.60;;;19.80;92.70;;;;;;5011264;28;20109;-67
2021/07/16 04:35:10;;;;;;;17.83;5.80;;;19.90;92.70;;;;;;5011736;28;20123;-67
2021/07/16 04:37:36;;;;;;;20.90;6.03;;;19.90;92.60;;;;;;5011022;28;20392;-67
2021/07/16 04:40:07;;;;;;;23.00;6.82;;;19.90;92.60;;;;;;5011510;28;20119;-67
2021/07/16 04:42:33;;;;;;;;;;;19.90;92.60;;;;;;5010649;28;20603;-67
2021/07/16 04:44:59;;;;;;;21.63;5.63;;;19.90;92.60;;;;;;4993813;28;20008;-67
2021/07/16 04:47:24;;;;;;;19.35;6.93;;;20.00;92.50;;;;;;5003069;28;20030;-67
2021/07/16 04:49:50;;;;;;;24.30;6.70;;;20.00;92.50;;;;;;5004678;28;20022;-67
2021/07/16 04:52:16;;;;;;;21.50;5.88;;;20.10;92.20;;;;;;4978215;28;20038;-67
2021/07/16 04:54:41;;;;;;;17.83;5.32;;;20.10;92.10;;;;;;4992320;28;20457;-67
2021/07/16 04:57:11;;;;;;;19.23;6.43;;;20.10;92.30;;;;;;5010857;28;20052;-67
2021/07/16 04:59:37;;;;;;;20.95;5.80;;;20.10;92.20;;;;;;5010114;28;20029;-67
2021/07/16 05:02:04;;;;;;;22.95;6.78;;;20.10;92.10;;;;;;5010833;28;20117;-67
2021/07/16 05:04:30;;;;;;;19.40;6.22;;;20.10;92.10;;;;;;5000348;28;20035;-67
2021/07/16 05:06:55;;;;;;;19.08;5.45;;;20.10;92.30;;;;;;4991501;28;20026;-67
2021/07/16 05:09:23;;;;;;;17.02;5.90;;;20.20;92.20;;;;;;4990898;28;20029;-67
2021/07/16 05:11:49;;;;;;;17.67;5.60;;;20.30;92.00;;;;;;4991047;28;20038;-67
2021/07/16 05:14:14;;;;;;;18.42;6.18;;;20.40;91.90;;;;;;4991651;28;20088;-67
2021/07/16 05:16:40;;;;;;;17.55;6.05;;;20.40;92.00;;;;;;4988830;28;20513;-67
2021/07/16 05:19:06;;;;;;;18.95;6.35;;;20.30;91.80;;;;;;4990725;28;20042;-67
2021/07/16 05:21:33;;;;;;;22.38;6.28;;;20.30;91.90;;;;;;5001891;28;20061;-67
2021/07/16 05:23:59;;;;;;;23.95;7.00;;;20.30;91.90;;;;;;5010971;28;20025;-67
2021/07/16 05:26:25;;;;;;;25.10;6.85;;;20.30;91.90;;;;;;5011102;28;20037;-67
2021/07/16 05:28:51;;;;;;;15.27;5.53;;;20.30;91.90;;;;;;5010472;28;20030;-67
2021/07/16 05:31:17;;;;;;;32.05;7.57;;;20.30;92.00;;;;;;5013128;28;20026;-67
2021/07/16 05:33:44;;;;;;;19.90;5.93;;;20.30;92.00;;;;;;5015616;28;20034;-67
2021/07/16 05:36:10;;;;;;;21.73;6.38;;;20.30;92.00;;;;;;5015102;28;20469;-67
2021/07/16 05:38:37;;;;;;;19.23;6.15;;;20.30;92.00;;;;;;5014175;28;20050;-67
2021/07/16 05:41:04;;;;;;;24.13;6.43;;;20.20;92.10;;;;;;5014484;28;20030;-67
2021/07/16 05:43:30;;;;;;;23.08;7.35;;;20.30;92.20;;;;;;5014758;28;20030;-67
2021/07/16 05:45:56;;;;;;;21.35;7.47;;;20.30;92.00;;;;;;5014647;28;20030;-67
2021/07/16 05:48:22;;;;;;;26.80;8.02;;;20.30;92.00;;;;;;5002345;28;20034;-67
2021/07/16 05:50:48;;;;;;;15.70;5.68;;;20.40;92.00;;;;;;5010629;28;20034;-66
2021/07/16 05:53:16;;;;;;;22.30;6.25;;;20.40;91.90;;;;;;4995162;28;20114;-66
2021/07/16 05:55:42;;;;;;;20.42;6.40;;;20.40;91.90;;;;;;5003501;28;20514;-67
2021/07/16 05:58:09;;;;;;;18.42;5.50;;;20.50;92.00;;;;;;5011150;28;20049;-67
2021/07/16 06:00:35;;;;;;;28.70;7.45;;;20.50;91.90;;;;;;5014188;28;20069;-67
2021/07/16 06:03:02;;;;;;;20.10;6.88;;;20.50;91.80;;;;;;5014098;28;20108;-67
2021/07/16 06:05:27;;;;;;;19.88;7.10;;;20.50;91.90;;;;;;4995633;28;20077;-67
2021/07/16 06:07:53;;;;;;;19.27;6.38;;;20.50;91.80;;;;;;4994139;28;20034;-67
2021/07/16 06:10:19;;;;;;;18.38;6.15;;;20.50;91.80;;;;;;4994695;28;20030;-67
2021/07/16 06:12:45;;;;;;;17.27;5.65;;;20.60;91.70;;;;;;4998993;28;20601;-67
2021/07/16 06:15:12;;;;;;;19.80;5.93;;;20.60;91.70;;;;;;5001183;28;20159;-67
2021/07/16 06:17:38;;;;;;;21.35;7.07;;;20.70;91.70;;;;;;5008700;28;20105;-68
2021/07/16 06:20:06;;;;;;;13.27;6.35;;;20.70;91.70;;;;;;5012025;28;20550;-67
2021/07/16 06:22:32;;;;;;;16.20;6.15;;;20.80;91.70;;;;;;5000696;28;20053;-67
2021/07/16 06:24:58;;;;;;;22.10;6.50;;;20.80;91.50;;;;;;5006609;28;20440;-67
2021/07/16 06:27:25;;;;;;;15.55;6.07;;;20.90;91.50;;;;;;4993574;28;20129;-67
2021/07/16 06:29:51;;;;;;;18.88;6.32;;;20.80;91.50;;;;;;4999877;28;20049;-67
2021/07/16 06:32:17;;;;;;;20.63;5.40;;;20.90;91.50;;;;;;5008366;28;20025;-68
2021/07/16 06:34:43;;;;;;;21.92;6.97;;;21.00;91.50;;;;;;4996564;28;20070;-67
2021/07/16 06:37:09;;;;;;;15.27;5.40;;;21.00;91.30;;;;;;4995720;28;20073;-67
2021/07/16 06:39:34;;;;;;;21.05;6.35;;;21.10;91.20;;;;;;5013550;28;20034;-67
2021/07/16 06:42:00;;;;;;;26.60;7.40;;;21.10;91.20;;;;;;5011579;28;20092;-67
2021/07/16 06:44:26;;;;;;;20.27;6.55;;;21.00;91.20;;;;;;5013610;28;20053;-67
2021/07/16 06:46:51;;;;;;;21.80;6.53;;;21.00;91.10;;;;;;5006835;28;20094;-67
2021/07/16 06:49:20;;;;;;;17.20;5.32;;;21.10;91.20;;;;;;5003918;28;20626;-67
2021/07/16 06:51:46;;;;;;;16.88;6.65;;;21.10;91.20;;;;;;5001745;28;20121;-67
2021/07/16 06:54:11;;;;;;;15.77;6.30;;;21.20;91.20;;;;;;4993960;28;20121;-68
2021/07/16 06:56:37;;;;;;;16.15;5.90;;;21.20;91.10;;;;;;5010087;28;20062;-67
2021/07/16 06:59:06;;;;;;;18.70;6.05;;;21.20;91.20;;;;;;5009797;28;20030;-67
2021/07/16 07:01:32;;;;;;;19.42;5.75;;;21.20;91.20;;;;;;5012899;28;20029;-67
2021/07/16 07:03:58;;;;;;;18.48;6.13;;;21.30;91.20;;;;;;4988921;28;20561;-67
2021/07/16 07:06:24;;;;;;;21.40;6.25;;;21.30;91.20;;;;;;5008421;28;20034;-68
2021/07/16 07:08:50;;;;;;;16.60;6.30;;;21.40;91.10;;;;;;4992647;28;20149;-67
2021/07/16 07:11:15;;;;;;;15.68;5.43;;;21.40;91.10;;;;;;4992963;28;20054;-67
2021/07/16 07:13:41;;;;;;;15.25;5.82;;;21.50;91.10;;;;;;4993618;28;20041;-68
2021/07/16 07:16:07;;;;;;;15.73;6.05;;;21.50;91.00;;;;;;4992683;28;20026;-66
2021/07/16 07:18:32;;;;;;;19.65;6.07;;;21.60;91.00;;;;;;4991747;28;20034;-68
2021/07/16 07:20:58;;;;;;;14.70;5.78;;;21.70;90.90;;;;;;4997769;28;20033;-67
2021/07/16 07:23:24;;;;;;;15.93;5.10;;;21.80;90.80;;;;;;4999256;28;20068;-68
2021/07/16 07:25:49;;;;;;;14.77;5.18;;;21.90;90.70;;;;;;5009291;28;20030;-67
2021/07/16 07:28:16;;;;;;;17.77;5.55;;;22.10;90.60;;;;;;5010922;28;20575;-67
2021/07/16 07:30:43;;;;;;;24.60;7.60;;;22.30;90.30;;;;;;4992834;28;20039;-67
2021/07/16 07:33:08;;;;;;;19.67;6.50;;;22.30;89.90;;;;;;4993112;28;20416;-67
2021/07/16 07:35:34;;;;;;;18.42;5.97;;;22.50;90.00;;;;;;4993152;28;20038;-67
2021/07/16 07:38:02;;;;;;;20.02;6.43;;;22.60;89.80;;;;;;5003795;28;20104;-68
2021/07/16 07:40:28;;;;;;;12.02;5.47;;;22.80;89.00;;;;;;5012482;28;20087;-68
2021/07/16 07:42:55;;;;;;;20.33;7.35;;;22.80;89.10;;;;;;5011872;28;20038;-67
2021/07/16 07:45:21;;;;;;;12.32;5.20;;;22.70;88.70;;;;;;5011804;28;20034;-67
2021/07/16 07:47:47;;;;;;;16.35;5.75;;;22.60;89.10;;;;;;5003525;28;20038;-68
2021/07/16 07:50:18;;;;;;;18.92;6.05;;;22.70;89.30;;;;;;5008773;28;20026;-68
2021/07/16 07:52:46;;;;;;;16.60;5.50;;;22.80;89.20;;;;;;4992369;28;20481;-67
2021/07/16 07:55:14;;;;;;;21.20;6.65;;;22.80;88.60;;;;;;4996925;28;20460;-67
2021/07/16 07:57:40;;;;;;;19.63;6.15;;;22.90;88.10;;;;;;5008911;28;20558;-68
2021/07/16 08:00:13;;;;;;;14.25;5.80;;;22.80;88.40;;;;;;5011935;28;20053;-67
2021/07/16 08:02:39;;;;;;;13.77;5.63;;;22.80;88.60;;;;;;5011867;28;20030;-68
2021/07/16 08:05:06;;;;;;;16.63;5.90;;;22.80;88.70;;;;;;4996280;28;20027;-67
2021/07/16 08:07:32;;;;;;;14.93;4.90;;;22.80;88.40;;;;;;4991681;28;20034;-67
2021/07/16 08:09:57;;;;;;;15.98;6.35;;;22.80;88.40;;;;;;4992240;28;20033;-68
2021/07/16 08:12:23;;;;;;;18.45;5.10;;;22.80;88.20;;;;;;4992015;28;20038;-68
2021/07/16 08:14:49;;;;;;;16.50;6.50;;;22.80;88.30;;;;;;4992157;28;20110;-67
2021/07/16 08:17:15;;;;;;;20.33;5.70;;;23.00;88.40;;;;;;4988896;28;20172;-68
2021/07/16 08:19:40;;;;;;;14.60;6.05;;;23.10;87.60;;;;;;4992070;28;20038;-67
2021/07/16 08:22:07;;;;;;;16.30;5.97;;;23.20;87.60;;;;;;5002377;28;20062;-67
2021/07/16 08:24:33;;;;;;;16.02;5.35;;;23.30;87.00;;;;;;4997650;28;20602;-68
2021/07/16 08:26:58;;;;;;;18.02;5.70;;;23.40;86.80;;;;;;5011724;28;20109;-67
2021/07/16 08:29:24;;;;;;;17.45;5.68;;;23.60;86.30;;;;;;5000401;28;20392;-68
2021/07/16 08:31:50;;;;;;;17.75;5.50;;;23.70;86.20;;;;;;4991567;28;20061;-67
2021/07/16 08:34:16;;;;;;;15.18;5.00;;;23.70;85.70;;;;;;4992042;28;20053;-67
2021/07/16 08:36:43;;;;;;;15.02;4.88;;;23.70;84.00;;;;;;4992788;28;20037;-68
2021/07/16 08:39:09;;;;;;;12.10;4.35;;;23.60;84.40;;;;;;5010696;28;20056;-67
2021/07/16 08:41:36;;;;;;;13.85;4.35;;;23.70;85.00;;;;;;5011095;28;20547;-68
2021/07/16 08:44:02;;;;;;;16.90;4.90;;;23.60;85.00;;;;;;5011312;28;20108;-67
2021/07/16 08:46:28;;;;;;;15.88;5.40;;;23.70;85.30;;;;;;5010028;28;20061;-67
2021/07/16 08:48:53;;;;;;;15.20;5.63;;;23.60;84.90;;;;;;5000592;28;20070;-67
2021/07/16 08:51:23;;;;;;;17.05;5.72;;;23.40;85.50;;;;;;5003442;28;20067;-67
2021/07/16 08:53:53;;;;;;;16.27;5.25;;;23.40;85.80;;;;;;4991630;28;20031;-67
2021/07/16 08:56:20;;;;;;;20.20;5.30;;;23.40;85.80;;;;;;5005403;28;20057;-67
2021/07/16 08:58:46;;;;;;;16.30;5.57;;;23.40;85.30;;;;;;5007768;28;20038;-68
2021/07/16 09:01:13;;;;;;;21.50;5.35;;;23.50;85.30;;;;;;5010698;28;20048;-68
2021/07/16 09:04:02;;;;;;;14.00;4.70;;;23.50;85.60;;;;;;5006839;28;20485;-67
2021/07/16 09:06:47;;;;;;;17.65;6.05;;;23.50;85.50;;;;;;4990618;28;20022;-67
2021/07/16 09:09:18;;;;;;;14.15;4.90;;;23.50;84.40;;;;;;4990493;28;20034;-67
2021/07/16 09:11:48;;;;;;;14.00;4.80;;;23.50;84.80;;;;;;4990820;28;20515;-68
2021/07/16 09:14:26;;;;;;;20.13;5.70;;;23.60;84.80;;;;;;4991348;28;20121;-68
2021/07/16 09:17:02;;;;;;;15.93;4.88;;;23.60;84.90;;;;;;4991338;28;20034;-68
2021/07/16 09:19:32;;;;;;;11.45;5.13;;;23.70;85.00;;;;;;4990863;28;20030;-67
2021/07/16 09:22:03;;;;;;;16.40;5.15;;;23.70;84.80;;;;;;5001541;28;20033;-67
2021/07/16 09:24:28;;;;;;;13.20;4.90;;;23.70;84.30;;;;;;4996408;28;20384;-67
2021/07/16 09:26:54;;;;;;;12.50;4.93;;;23.80;84.50;;;;;;5010822;28;20030;-68
2021/07/16 09:29:31;;;;;;;12.75;4.65;;;23.90;83.60;;;;;;5000063;28;20060;-68
2021/07/16 09:32:07;;;;;;;14.02;4.10;;;24.10;83.50;;;;;;4990241;28;20065;-68
2021/07/16 09:34:35;;;;;;;13.18;4.50;;;24.20;82.60;;;;;;4991317;28;20035;-67
2021/07/16 09:37:09;;;;;;;11.85;4.63;;;24.20;82.30;;;;;;4994042;28;20026;-67
2021/07/16 09:39:36;;;;;;;15.35;5.07;;;24.20;82.70;;;;;;5010305;28;20060;-67
2021/07/16 09:42:04;;;;;;;16.83;4.82;;;24.30;82.20;;;;;;5009942;28;20033;-67
2021/07/16 09:44:35;;;;;;;11.80;4.78;;;24.40;81.90;;;;;;5010328;28;20030;-68
2021/07/16 09:47:09;;;;;;;15.35;5.30;;;24.50;82.20;;;;;;5007226;28;20030;-68
2021/07/16 09:49:36;;;;;;;13.95;4.97;;;24.60;81.70;;;;;;5001788;28;20040;-67
2021/07/16 09:52:14;;;;;;;9.82;4.88;;;24.70;81.70;;;;;;4996583;28;20638;-68
2021/07/16 09:55:14;;;;;;;9.68;4.38;;;25.00;81.50;;;;;;4988393;28;20033;-69
2021/07/16 09:57:42;;;;;;;13.55;4.97;;;25.10;81.20;;;;;;5007278;28;20034;-68
2021/07/16 10:00:18;;;;;;;18.98;5.47;;;25.20;81.30;;;;;;5007615;28;20107;-68
2021/07/16 10:02:45;;;;;;;13.75;5.40;;;25.20;80.90;;;;;;5010127;28;20384;-68
2021/07/16 10:05:12;;;;;;;13.65;5.70;;;25.20;81.00;;;;;;4993852;28;20104;-69
2021/07/16 10:07:42;;;;;;;15.95;5.55;;;25.10;81.10;;;;;;4990311;28;20130;-68
2021/07/16 10:10:14;;;;;;;13.55;5.10;;;25.10;81.20;;;;;;5005975;28;20030;-68
2021/07/16 10:12:44;;;;;;;15.23;5.63;;;25.10;81.90;;;;;;4990438;28;20113;-68
2021/07/16 10:15:14;;;;;;;14.07;5.60;;;25.10;82.30;;;;;;4990650;28;20037;-68
2021/07/16 10:17:41;;;;;;;17.80;5.97;;;25.10;82.50;;;;;;4992894;28;20037;-68
2021/07/16 10:20:11;;;;;;;14.05;4.78;;;25.00;82.00;;;;;;4963256;28;20034;-67
2021/07/16 10:22:41;;;;;;;15.90;5.47;;;25.00;82.90;;;;;;5002504;28;20030;-68
2021/07/16 10:25:09;;;;;;;14.83;4.33;;;25.00;83.20;;;;;;5004933;28;20480;-68
2021/07/16 10:27:36;;;;;;;16.92;5.63;;;25.00;83.20;;;;;;5013465;28;20037;-68
2021/07/16 10:30:12;;;;;;;17.75;5.35;;;25.10;82.90;;;;;;4998228;28;20101;-68
2021/07/16 10:32:45;;;;;;;17.80;5.63;;;25.20;83.20;;;;;;4993879;28;20111;-68
2021/07/16 10:35:20;;;;;;;12.32;4.80;;;25.20;82.20;;;;;;4994148;28;20481;-68
2021/07/16 10:37:47;;;;;;;13.65;4.85;;;25.30;82.60;;;;;;5002988;28;20101;-68
2021/07/16 10:40:34;;;;;;;11.65;4.57;;;25.30;82.70;;;;;;5013660;28;20026;-68
2021/07/16 10:43:00;;;;;;;14.70;4.85;;;25.20;81.90;;;;;;4997629;28;20038;-68
2021/07/16 10:45:36;;;;;;;16.67;5.25;;;25.30;82.30;;;;;;5013737;28;20033;-68
2021/07/16 10:48:10;;;;;;;20.83;5.80;;;25.30;82.20;;;;;;5003193;28;20038;-68
2021/07/16 10:50:38;;;;;;;15.65;5.45;;;25.50;82.70;;;;;;5010561;28;20113;-68
2021/07/16 10:53:08;;;;;;;17.17;5.40;;;25.60;82.20;;;;;;5009179;28;20038;-67
2021/07/16 10:55:37;;;;;;;10.93;4.82;;;25.70;80.80;;;;;;5001400;28;20389;-68
2021/07/16 10:58:51;;;;;;;16.15;5.57;;;25.70;81.30;;;;;;5009918;28;20040;-68
2021/07/16 11:01:32;;;;;;;14.32;4.90;;;25.70;81.20;;;;;;4978045;28;20042;-68
2021/07/16 11:04:00;;;;;;;15.85;6.13;;;25.80;81.50;;;;;;5006680;28;20033;-66
2021/07/16 11:06:52;;;;;;;14.88;4.72;;;25.90;81.40;;;;;;4993591;28;20101;-68
2021/07/16 11:09:42;;;;;;;17.65;4.85;;;26.00;81.60;;;;;;4992819;28;20134;-67
2021/07/16 11:12:46;;;;;;;15.85;5.18;;;26.10;81.00;;;;;;4993005;28;20034;-67
2021/07/16 11:15:29;;;;;;;20.50;5.72;;;26.20;79.70;;;;;;4913979;29;20044;-68
2021/07/16 11:17:56;;;;;;;15.35;5.28;;;26.20;79.20;;;;;;4911495;29;20048;-68
2021/07/16 11:20:29;;;;;;;16.80;5.45;;;26.30;79.60;;;;;;4910279;29;20045;-68
2021/07/16 11:22:59;;;;;;;20.38;5.70;;;26.50;79.90;;;;;;4905583;29;20071;-68
2021/07/16 11:25:25;;;;;;;14.93;5.55;;;26.70;79.60;;;;;;4901434;29;20521;-68
2021/07/16 11:27:51;;;;;;;16.80;4.85;;;26.90;80.10;;;;;;4893965;29;20391;-69
2021/07/16 11:30:17;;;;;;;16.75;5.63;;;27.30;79.80;;;;;;4911923;29;20024;-68
2021/07/16 11:32:43;;;;;;;12.68;5.03;;;27.80;79.30;;;;;;4914163;29;20044;-68
2021/07/16 11:35:12;;;;;;;13.52;4.30;;;28.30;77.90;;;;;;4914107;29;20060;-68
2021/07/16 11:37:50;;;;;;;12.43;4.43;;;29.50;73.20;;;;;;4906532;29;20041;-68
2021/07/16 11:40:24;;;;;;;16.60;4.97;;;31.20;70.80;;;;;;4893854;29;20475;-69
2021/07/16 11:42:52;;;;;;;14.88;5.57;;;33.40;64.10;;;;;;4894745;29;20112;-69
2021/07/16 11:45:23;;;;;;;14.05;5.05;;;35.10;58.70;;;;;;4912248;28;20039;-68
2021/07/16 11:47:50;;;;;;;10.95;4.82;;;36.60;53.80;;;;;;4991769;28;20039;-68
2021/07/16 11:50:17;;;;;;;9.90;4.57;;;37.30;51.50;;;;;;5008745;28;20049;-69
2021/07/16 11:52:45;;;;;;;11.90;5.25;;;38.00;49.20;;;;;;4993410;28;20109;-68
2021/07/16 11:55:20;;;;;;;10.32;4.88;;;38.80;47.30;;;;;;4996746;28;20484;-68
2021/07/16 11:57:50;;;;;;;9.38;4.65;;;38.70;45.20;;;;;;5009148;28;20403;-69
2021/07/16 12:00:16;;;;;;;11.88;5.20;;;38.60;46.20;;;;;;5008720;28;20192;-68
2021/07/16 12:02:43;;;;;;;11.43;5.15;;;38.40;45.10;;;;;;5012242;28;20034;-69
2021/07/16 12:05:11;;;;;;;15.55;5.10;;;38.30;44.60;;;;;;4995679;28;20388;-69
2021/07/16 12:07:44;;;;;;;13.93;4.63;;;38.60;43.20;;;;;;4991833;28;20038;-68
2021/07/16 12:10:13;;;;;;;12.50;5.00;;;38.30;43.70;;;;;;4974522;28;20034;-68
2021/07/16 12:12:40;;;;;;;15.00;5.55;;;38.50;43.90;;;;;;4992662;28;20221;-68
2021/07/16 12:15:08;;;;;;;14.75;5.72;;;38.40;43.20;;;;;;4992231;28;20459;-68
2021/07/16 12:17:42;;;;;;;14.63;5.25;;;38.60;43.30;;;;;;4988861;28;20030;-69
2021/07/16 12:20:14;;;;;;;15.52;6.38;;;38.60;42.40;;;;;;4991736;28;20034;-67
2021/07/16 12:22:44;;;;;;;13.88;5.07;;;38.00;43.50;;;;;;4972789;28;20047;-68
2021/07/16 12:25:12;;;;;;;13.63;5.40;;;37.90;44.40;;;;;;4972623;28;20023;-68
2021/07/16 12:27:39;;;;;;;12.30;5.07;;;37.90;44.30;;;;;;4954780;28;20123;-68
2021/07/16 12:30:11;;;;;;;14.43;5.50;;;37.70;43.70;;;;;;4972628;28;20034;-68
2021/07/16 12:32:37;;;;;;;13.13;4.78;;;37.60;44.00;;;;;;4972595;28;20030;-68
2021/07/16 12:35:35;;;;;;;26.65;18.55;;;36.90;43.00;;;;;;4972459;28;20038;-68
2021/07/16 12:38:03;;;;;;;21.75;9.80;;;36.60;45.50;;;;;;4960426;28;20050;-69
2021/07/16 12:40:30;;;;;;;11.52;5.68;;;35.70;46.20;;;;;;4971842;28;20027;-68
2021/07/16 12:43:01;;;;;;;10.18;4.65;;;35.30;48.40;;;;;;4972807;28;20540;-68